sensor_id;sensor_type;location;lat;lon;timestamp;P1;durP1;ratioP1;P2;durP2;ratioP2
52057;SDS011;38063;53.210;6.504;2023-06-22T00:00:42;22.35;;;16.77;;
52057;SDS011;38063;53.210;6.504;2023-06-22T00:03:09;25.08;;;15.73;;
52057;SDS011;38063;53.210;6.504;2023-06-22T00:05:35;23.52;;;15.15;;
52057;SDS011;38063;53.210;6.504;2023-06-22T00:08:04;23.40;;;14.30;;
52057;SDS011;38063;53.210;6.504;2023-06-22T00:10:30;21.23;;;15.60;;
52057;SDS011;38063;53.210;6.504;2023-06-22T00:12:56;23.45;;;15.55;;
52057;SDS011;38063;53.210;6.504;2023-06-22T00:15:22;23.05;;;16.13;;
52057;SDS011;38063;53.210;6.504;2023-06-22T00:17:47;20.48;;;14.15;;
52057;SDS011;38063;53.210;6.504;2023-06-22T00:20:14;22.60;;;15.63;;
52057;SDS011;38063;53.210;6.504;2023-06-22T00:22:40;21.30;;;16.13;;
52057;SDS011;38063;53.210;6.504;2023-06-22T00:25:06;19.52;;;15.63;;
52057;SDS011;38063;53.210;6.504;2023-06-22T00:27:32;20.98;;;15.32;;
52057;SDS011;38063;53.210;6.504;2023-06-22T00:29:58;23.42;;;15.45;;
52057;SDS011;38063;53.210;6.504;2023-06-22T00:32:23;21.75;;;15.02;;
52057;SDS011;38063;53.210;6.504;2023-06-22T00:34:49;21.55;;;15.27;;
52057;SDS011;38063;53.210;6.504;2023-06-22T00:37:15;22.98;;;17.70;;
52057;SDS011;38063;53.210;6.504;2023-06-22T00:39:42;23.80;;;17.05;;
52057;SDS011;38063;53.210;6.504;2023-06-22T00:42:08;25.48;;;16.85;;
52057;SDS011;38063;53.210;6.504;2023-06-22T00:44:34;20.98;;;15.68;;
52057;SDS011;38063;53.210;6.504;2023-06-22T00:47:00;19.83;;;14.75;;
52057;SDS011;38063;53.210;6.504;2023-06-22T00:49:27;23.80;;;15.07;;
52057;SDS011;38063;53.210;6.504;2023-06-22T00:51:53;20.90;;;15.38;;
52057;SDS011;38063;53.210;6.504;2023-06-22T00:54:19;23.02;;;14.05;;
52057;SDS011;38063;53.210;6.504;2023-06-22T00:56:50;17.55;;;13.25;;
52057;SDS011;38063;53.210;6.504;2023-06-22T00:59:20;18.35;;;14.43;;
52057;SDS011;38063;53.210;6.504;2023-06-22T01:01:46;19.90;;;14.48;;
52057;SDS011;38063;53.210;6.504;2023-06-22T01:04:12;20.73;;;14.95;;
52057;SDS011;38063;53.210;6.504;2023-06-22T01:06:43;20.10;;;14.48;;
52057;SDS011;38063;53.210;6.504;2023-06-22T01:09:18;22.38;;;16.40;;
52057;SDS011;38063;53.210;6.504;2023-06-22T01:11:54;20.55;;;15.02;;
52057;SDS011;38063;53.210;6.504;2023-06-22T01:14:35;24.73;;;15.38;;
52057;SDS011;38063;53.210;6.504;2023-06-22T01:17:07;21.33;;;15.75;;
52057;SDS011;38063;53.210;6.504;2023-06-22T01:19:39;20.13;;;15.52;;
52057;SDS011;38063;53.210;6.504;2023-06-22T01:22:12;29.27;;;16.90;;
52057;SDS011;38063;53.210;6.504;2023-06-22T01:30:21;24.10;;;17.40;;
52057;SDS011;38063;53.210;6.504;2023-06-22T01:32:50;27.90;;;19.55;;
52057;SDS011;38063;53.210;6.504;2023-06-22T01:35:17;27.23;;;18.45;;
52057;SDS011;38063;53.210;6.504;2023-06-22T01:37:44;23.33;;;18.15;;
52057;SDS011;38063;53.210;6.504;2023-06-22T01:40:10;27.58;;;18.88;;
52057;SDS011;38063;53.210;6.504;2023-06-22T01:42:37;23.92;;;17.98;;
52057;SDS011;38063;53.210;6.504;2023-06-22T01:45:03;22.45;;;18.23;;
52057;SDS011;38063;53.210;6.504;2023-06-22T01:47:30;24.73;;;17.73;;
52057;SDS011;38063;53.210;6.504;2023-06-22T01:49:56;28.33;;;19.92;;
52057;SDS011;38063;53.210;6.504;2023-06-22T01:52:22;27.13;;;19.70;;
52057;SDS011;38063;53.210;6.504;2023-06-22T01:54:48;27.33;;;20.67;;
52057;SDS011;38063;53.210;6.504;2023-06-22T01:57:14;25.98;;;20.90;;
52057;SDS011;38063;53.210;6.504;2023-06-22T01:59:48;29.25;;;20.80;;
52057;SDS011;38063;53.210;6.504;2023-06-22T02:02:32;29.25;;;22.35;;
52057;SDS011;38063;53.210;6.504;2023-06-22T02:05:07;31.15;;;21.70;;
52057;SDS011;38063;53.210;6.504;2023-06-22T02:07:47;22.85;;;19.42;;
52057;SDS011;38063;53.210;6.504;2023-06-22T02:10:19;29.13;;;20.73;;
52057;SDS011;38063;53.210;6.504;2023-06-22T02:12:45;24.88;;;19.63;;
52057;SDS011;38063;53.210;6.504;2023-06-22T02:15:13;26.63;;;18.65;;
52057;SDS011;38063;53.210;6.504;2023-06-22T02:17:39;26.77;;;19.27;;
52057;SDS011;38063;53.210;6.504;2023-06-22T02:20:11;23.67;;;19.02;;
52057;SDS011;38063;53.210;6.504;2023-06-22T02:22:38;26.80;;;19.38;;
52057;SDS011;38063;53.210;6.504;2023-06-22T02:25:04;28.38;;;21.13;;
52057;SDS011;38063;53.210;6.504;2023-06-22T02:27:30;28.55;;;19.75;;
52057;SDS011;38063;53.210;6.504;2023-06-22T02:29:56;25.67;;;20.30;;
52057;SDS011;38063;53.210;6.504;2023-06-22T02:32:22;23.77;;;18.33;;
52057;SDS011;38063;53.210;6.504;2023-06-22T02:34:47;25.98;;;19.75;;
52057;SDS011;38063;53.210;6.504;2023-06-22T02:37:13;28.23;;;20.52;;
52057;SDS011;38063;53.210;6.504;2023-06-22T02:39:40;29.67;;;20.45;;
52057;SDS011;38063;53.210;6.504;2023-06-22T02:42:06;30.00;;;21.00;;
52057;SDS011;38063;53.210;6.504;2023-06-22T02:44:31;25.67;;;20.13;;
52057;SDS011;38063;53.210;6.504;2023-06-22T02:46:57;27.63;;;21.15;;
52057;SDS011;38063;53.210;6.504;2023-06-22T02:49:23;26.55;;;21.42;;
52057;SDS011;38063;53.210;6.504;2023-06-22T02:51:49;29.60;;;20.00;;
52057;SDS011;38063;53.210;6.504;2023-06-22T02:54:14;25.35;;;20.20;;
52057;SDS011;38063;53.210;6.504;2023-06-22T02:56:41;25.35;;;20.02;;
52057;SDS011;38063;53.210;6.504;2023-06-22T02:59:09;27.38;;;19.25;;
52057;SDS011;38063;53.210;6.504;2023-06-22T03:01:36;25.55;;;20.45;;
52057;SDS011;38063;53.210;6.504;2023-06-22T03:04:08;30.83;;;21.42;;
52057;SDS011;38063;53.210;6.504;2023-06-22T03:06:35;30.35;;;20.98;;
52057;SDS011;38063;53.210;6.504;2023-06-22T03:09:01;29.02;;;20.30;;
52057;SDS011;38063;53.210;6.504;2023-06-22T03:11:32;27.70;;;19.85;;
52057;SDS011;38063;53.210;6.504;2023-06-22T03:13:59;28.40;;;19.63;;
52057;SDS011;38063;53.210;6.504;2023-06-22T03:16:25;23.30;;;19.00;;
52057;SDS011;38063;53.210;6.504;2023-06-22T03:18:51;25.85;;;19.83;;
52057;SDS011;38063;53.210;6.504;2023-06-22T03:21:18;26.58;;;20.40;;
52057;SDS011;38063;53.210;6.504;2023-06-22T03:23:47;27.60;;;19.88;;
52057;SDS011;38063;53.210;6.504;2023-06-22T03:26:16;24.23;;;20.42;;
52057;SDS011;38063;53.210;6.504;2023-06-22T03:28:43;27.15;;;19.95;;
52057;SDS011;38063;53.210;6.504;2023-06-22T03:31:08;29.98;;;20.67;;
52057;SDS011;38063;53.210;6.504;2023-06-22T03:33:34;28.05;;;20.55;;
52057;SDS011;38063;53.210;6.504;2023-06-22T03:36:00;27.13;;;20.50;;
52057;SDS011;38063;53.210;6.504;2023-06-22T03:38:25;30.35;;;21.65;;
52057;SDS011;38063;53.210;6.504;2023-06-22T03:40:52;30.98;;;22.05;;
52057;SDS011;38063;53.210;6.504;2023-06-22T03:43:18;34.78;;;24.92;;
52057;SDS011;38063;53.210;6.504;2023-06-22T03:45:44;37.17;;;25.15;;
52057;SDS011;38063;53.210;6.504;2023-06-22T03:48:12;33.63;;;24.65;;
52057;SDS011;38063;53.210;6.504;2023-06-22T03:50:38;36.47;;;24.65;;
52057;SDS011;38063;53.210;6.504;2023-06-22T03:53:03;35.25;;;25.08;;
52057;SDS011;38063;53.210;6.504;2023-06-22T03:55:29;37.17;;;24.67;;
52057;SDS011;38063;53.210;6.504;2023-06-22T03:57:55;36.05;;;23.92;;
52057;SDS011;38063;53.210;6.504;2023-06-22T04:00:22;35.20;;;24.25;;
52057;SDS011;38063;53.210;6.504;2023-06-22T04:02:48;34.00;;;24.55;;
52057;SDS011;38063;53.210;6.504;2023-06-22T04:05:14;34.67;;;24.27;;
52057;SDS011;38063;53.210;6.504;2023-06-22T04:07:44;35.38;;;25.70;;
52057;SDS011;38063;53.210;6.504;2023-06-22T04:10:09;35.15;;;25.33;;
52057;SDS011;38063;53.210;6.504;2023-06-22T04:12:35;34.85;;;24.88;;
52057;SDS011;38063;53.210;6.504;2023-06-22T04:15:01;32.97;;;24.15;;
52057;SDS011;38063;53.210;6.504;2023-06-22T04:17:27;35.58;;;24.52;;
52057;SDS011;38063;53.210;6.504;2023-06-22T04:19:52;39.05;;;26.67;;
52057;SDS011;38063;53.210;6.504;2023-06-22T04:22:18;39.40;;;25.02;;
52057;SDS011;38063;53.210;6.504;2023-06-22T04:24:44;36.42;;;25.13;;
52057;SDS011;38063;53.210;6.504;2023-06-22T04:27:10;32.72;;;23.67;;
52057;SDS011;38063;53.210;6.504;2023-06-22T04:29:35;38.58;;;25.95;;
52057;SDS011;38063;53.210;6.504;2023-06-22T04:32:01;39.55;;;27.08;;
52057;SDS011;38063;53.210;6.504;2023-06-22T04:34:30;43.92;;;27.15;;
52057;SDS011;38063;53.210;6.504;2023-06-22T04:36:56;41.95;;;27.17;;
52057;SDS011;38063;53.210;6.504;2023-06-22T04:39:23;45.13;;;31.42;;
52057;SDS011;38063;53.210;6.504;2023-06-22T04:41:49;46.00;;;31.45;;
52057;SDS011;38063;53.210;6.504;2023-06-22T04:44:17;47.83;;;30.90;;
52057;SDS011;38063;53.210;6.504;2023-06-22T04:46:49;49.88;;;31.33;;
52057;SDS011;38063;53.210;6.504;2023-06-22T04:49:19;44.35;;;29.83;;
52057;SDS011;38063;53.210;6.504;2023-06-22T04:51:45;49.80;;;31.27;;
52057;SDS011;38063;53.210;6.504;2023-06-22T04:54:11;46.85;;;29.27;;
52057;SDS011;38063;53.210;6.504;2023-06-22T04:56:37;44.83;;;31.50;;
52057;SDS011;38063;53.210;6.504;2023-06-22T04:59:03;45.80;;;30.25;;
52057;SDS011;38063;53.210;6.504;2023-06-22T05:01:28;46.97;;;31.15;;
52057;SDS011;38063;53.210;6.504;2023-06-22T05:03:56;45.75;;;31.60;;
52057;SDS011;38063;53.210;6.504;2023-06-22T05:06:23;47.15;;;31.02;;
52057;SDS011;38063;53.210;6.504;2023-06-22T05:08:58;48.50;;;33.00;;
52057;SDS011;38063;53.210;6.504;2023-06-22T05:11:25;49.03;;;32.85;;
52057;SDS011;38063;53.210;6.504;2023-06-22T05:13:54;56.28;;;34.30;;
52057;SDS011;38063;53.210;6.504;2023-06-22T05:16:21;50.10;;;35.05;;
52057;SDS011;38063;53.210;6.504;2023-06-22T05:18:53;51.03;;;34.10;;
52057;SDS011;38063;53.210;6.504;2023-06-22T05:21:23;47.97;;;34.20;;
52057;SDS011;38063;53.210;6.504;2023-06-22T05:23:51;52.72;;;34.33;;
52057;SDS011;38063;53.210;6.504;2023-06-22T05:26:17;48.05;;;33.38;;
52057;SDS011;38063;53.210;6.504;2023-06-22T05:28:44;47.83;;;34.85;;
52057;SDS011;38063;53.210;6.504;2023-06-22T05:31:12;52.53;;;33.03;;
52057;SDS011;38063;53.210;6.504;2023-06-22T05:33:38;44.88;;;32.45;;
52057;SDS011;38063;53.210;6.504;2023-06-22T05:36:04;48.67;;;32.50;;
52057;SDS011;38063;53.210;6.504;2023-06-22T05:38:30;48.78;;;32.47;;
52057;SDS011;38063;53.210;6.504;2023-06-22T05:40:56;46.15;;;32.33;;
52057;SDS011;38063;53.210;6.504;2023-06-22T05:43:21;44.13;;;31.55;;
52057;SDS011;38063;53.210;6.504;2023-06-22T05:45:47;38.15;;;28.60;;
52057;SDS011;38063;53.210;6.504;2023-06-22T05:48:13;40.00;;;29.17;;
52057;SDS011;38063;53.210;6.504;2023-06-22T05:50:38;38.03;;;27.35;;
52057;SDS011;38063;53.210;6.504;2023-06-22T05:53:04;39.38;;;27.42;;
52057;SDS011;38063;53.210;6.504;2023-06-22T05:55:31;38.92;;;26.38;;
52057;SDS011;38063;53.210;6.504;2023-06-22T05:57:57;37.53;;;26.15;;
52057;SDS011;38063;53.210;6.504;2023-06-22T06:00:23;35.80;;;25.10;;
52057;SDS011;38063;53.210;6.504;2023-06-22T06:02:49;33.70;;;23.10;;
52057;SDS011;38063;53.210;6.504;2023-06-22T06:05:15;33.08;;;23.23;;
52057;SDS011;38063;53.210;6.504;2023-06-22T06:07:44;31.73;;;22.65;;
52057;SDS011;38063;53.210;6.504;2023-06-22T06:10:10;32.17;;;20.98;;
52057;SDS011;38063;53.210;6.504;2023-06-22T06:12:36;28.70;;;20.98;;
52057;SDS011;38063;53.210;6.504;2023-06-22T06:15:02;30.90;;;20.33;;
52057;SDS011;38063;53.210;6.504;2023-06-22T06:17:28;28.10;;;19.08;;
52057;SDS011;38063;53.210;6.504;2023-06-22T06:19:54;24.85;;;18.73;;
52057;SDS011;38063;53.210;6.504;2023-06-22T06:22:20;24.55;;;18.27;;
52057;SDS011;38063;53.210;6.504;2023-06-22T06:24:46;26.55;;;17.65;;
52057;SDS011;38063;53.210;6.504;2023-06-22T06:27:13;24.08;;;17.05;;
52057;SDS011;38063;53.210;6.504;2023-06-22T06:29:39;21.25;;;16.48;;
52057;SDS011;38063;53.210;6.504;2023-06-22T06:32:04;29.80;;;17.58;;
52057;SDS011;38063;53.210;6.504;2023-06-22T06:34:30;22.70;;;16.27;;
52057;SDS011;38063;53.210;6.504;2023-06-22T06:36:56;19.33;;;15.85;;
52057;SDS011;38063;53.210;6.504;2023-06-22T06:39:22;24.38;;;16.60;;
52057;SDS011;38063;53.210;6.504;2023-06-22T06:41:48;24.25;;;16.42;;
52057;SDS011;38063;53.210;6.504;2023-06-22T06:44:13;22.50;;;15.50;;
52057;SDS011;38063;53.210;6.504;2023-06-22T06:46:39;19.40;;;15.57;;
52057;SDS011;38063;53.210;6.504;2023-06-22T06:49:04;21.65;;;16.25;;
52057;SDS011;38063;53.210;6.504;2023-06-22T06:51:30;19.05;;;14.65;;
52057;SDS011;38063;53.210;6.504;2023-06-22T06:53:56;16.48;;;13.27;;
52057;SDS011;38063;53.210;6.504;2023-06-22T06:56:21;18.83;;;14.13;;
52057;SDS011;38063;53.210;6.504;2023-06-22T06:58:49;18.27;;;13.38;;
52057;SDS011;38063;53.210;6.504;2023-06-22T07:01:15;16.83;;;14.05;;
52057;SDS011;38063;53.210;6.504;2023-06-22T07:03:41;17.83;;;13.43;;
52057;SDS011;38063;53.210;6.504;2023-06-22T07:06:07;17.83;;;13.32;;
52057;SDS011;38063;53.210;6.504;2023-06-22T07:08:33;18.77;;;13.35;;
52057;SDS011;38063;53.210;6.504;2023-06-22T07:11:01;17.98;;;13.68;;
52057;SDS011;38063;53.210;6.504;2023-06-22T07:13:27;17.38;;;13.00;;
52057;SDS011;38063;53.210;6.504;2023-06-22T07:15:53;18.08;;;12.05;;
52057;SDS011;38063;53.210;6.504;2023-06-22T07:18:19;16.55;;;12.38;;
52057;SDS011;38063;53.210;6.504;2023-06-22T07:20:44;13.93;;;11.32;;
52057;SDS011;38063;53.210;6.504;2023-06-22T07:23:10;14.27;;;10.75;;
52057;SDS011;38063;53.210;6.504;2023-06-22T07:25:35;12.57;;;10.60;;
52057;SDS011;38063;53.210;6.504;2023-06-22T07:28:03;13.00;;;10.00;;
52057;SDS011;38063;53.210;6.504;2023-06-22T07:30:30;15.57;;;11.52;;
52057;SDS011;38063;53.210;6.504;2023-06-22T07:32:57;14.13;;;10.80;;
52057;SDS011;38063;53.210;6.504;2023-06-22T07:35:23;14.75;;;10.65;;
52057;SDS011;38063;53.210;6.504;2023-06-22T07:37:50;13.60;;;9.82;;
52057;SDS011;38063;53.210;6.504;2023-06-22T07:40:15;14.55;;;10.13;;
52057;SDS011;38063;53.210;6.504;2023-06-22T07:42:41;16.20;;;9.88;;
52057;SDS011;38063;53.210;6.504;2023-06-22T07:45:07;13.07;;;11.43;;
52057;SDS011;38063;53.210;6.504;2023-06-22T07:47:33;17.80;;;11.57;;
52057;SDS011;38063;53.210;6.504;2023-06-22T07:50:00;14.95;;;10.90;;
52057;SDS011;38063;53.210;6.504;2023-06-22T07:52:27;12.60;;;9.63;;
52057;SDS011;38063;53.210;6.504;2023-06-22T07:54:54;9.50;;;8.00;;
52057;SDS011;38063;53.210;6.504;2023-06-22T07:57:20;12.23;;;8.35;;
52057;SDS011;38063;53.210;6.504;2023-06-22T07:59:46;11.68;;;7.47;;
52057;SDS011;38063;53.210;6.504;2023-06-22T08:02:12;10.93;;;8.02;;
52057;SDS011;38063;53.210;6.504;2023-06-22T08:04:38;8.30;;;7.15;;
52057;SDS011;38063;53.210;6.504;2023-06-22T08:07:04;11.80;;;8.02;;
52057;SDS011;38063;53.210;6.504;2023-06-22T08:09:31;9.95;;;7.78;;
52057;SDS011;38063;53.210;6.504;2023-06-22T08:11:58;12.02;;;8.45;;
52057;SDS011;38063;53.210;6.504;2023-06-22T08:14:27;10.13;;;8.07;;
52057;SDS011;38063;53.210;6.504;2023-06-22T08:16:54;10.13;;;7.28;;
52057;SDS011;38063;53.210;6.504;2023-06-22T08:19:20;9.07;;;6.85;;
52057;SDS011;38063;53.210;6.504;2023-06-22T08:21:46;9.35;;;6.65;;
52057;SDS011;38063;53.210;6.504;2023-06-22T08:24:11;12.25;;;7.32;;
52057;SDS011;38063;53.210;6.504;2023-06-22T08:26:38;7.75;;;6.22;;
52057;SDS011;38063;53.210;6.504;2023-06-22T08:29:03;9.20;;;7.15;;
52057;SDS011;38063;53.210;6.504;2023-06-22T08:31:30;10.27;;;7.50;;
52057;SDS011;38063;53.210;6.504;2023-06-22T08:33:58;9.20;;;6.38;;
52057;SDS011;38063;53.210;6.504;2023-06-22T08:36:24;7.63;;;6.47;;
52057;SDS011;38063;53.210;6.504;2023-06-22T08:38:50;10.32;;;7.43;;
52057;SDS011;38063;53.210;6.504;2023-06-22T08:41:17;9.73;;;7.22;;
52057;SDS011;38063;53.210;6.504;2023-06-22T08:43:43;9.80;;;6.95;;
52057;SDS011;38063;53.210;6.504;2023-06-22T08:46:09;7.35;;;5.85;;
52057;SDS011;38063;53.210;6.504;2023-06-22T08:48:38;9.27;;;6.28;;
52057;SDS011;38063;53.210;6.504;2023-06-22T08:51:04;9.38;;;4.97;;
52057;SDS011;38063;53.210;6.504;2023-06-22T08:53:29;6.93;;;5.60;;
52057;SDS011;38063;53.210;6.504;2023-06-22T08:55:55;10.05;;;6.10;;
52057;SDS011;38063;53.210;6.504;2023-06-22T08:58:21;11.40;;;6.43;;
52057;SDS011;38063;53.210;6.504;2023-06-22T09:00:47;8.00;;;5.80;;
52057;SDS011;38063;53.210;6.504;2023-06-22T09:03:13;9.77;;;6.55;;
52057;SDS011;38063;53.210;6.504;2023-06-22T09:05:40;7.95;;;6.43;;
52057;SDS011;38063;53.210;6.504;2023-06-22T09:08:05;11.30;;;7.70;;
52057;SDS011;38063;53.210;6.504;2023-06-22T09:10:31;9.80;;;6.63;;
52057;SDS011;38063;53.210;6.504;2023-06-22T09:12:57;9.60;;;6.65;;
52057;SDS011;38063;53.210;6.504;2023-06-22T09:15:23;11.23;;;6.40;;
52057;SDS011;38063;53.210;6.504;2023-06-22T09:17:48;10.77;;;6.68;;
52057;SDS011;38063;53.210;6.504;2023-06-22T09:20:14;10.77;;;6.93;;
52057;SDS011;38063;53.210;6.504;2023-06-22T09:22:40;9.77;;;6.35;;
52057;SDS011;38063;53.210;6.504;2023-06-22T09:25:06;12.48;;;7.50;;
52057;SDS011;38063;53.210;6.504;2023-06-22T09:27:32;10.18;;;6.82;;
52057;SDS011;38063;53.210;6.504;2023-06-22T09:29:58;10.43;;;7.40;;
52057;SDS011;38063;53.210;6.504;2023-06-22T09:32:24;9.00;;;7.18;;
52057;SDS011;38063;53.210;6.504;2023-06-22T09:34:51;7.47;;;5.88;;
52057;SDS011;38063;53.210;6.504;2023-06-22T09:37:16;9.82;;;6.90;;
52057;SDS011;38063;53.210;6.504;2023-06-22T09:39:42;8.32;;;7.07;;
52057;SDS011;38063;53.210;6.504;2023-06-22T09:42:08;10.65;;;6.57;;
52057;SDS011;38063;53.210;6.504;2023-06-22T09:44:34;8.20;;;4.95;;
52057;SDS011;38063;53.210;6.504;2023-06-22T09:46:59;6.85;;;5.35;;
52057;SDS011;38063;53.210;6.504;2023-06-22T09:49:25;9.68;;;7.22;;
52057;SDS011;38063;53.210;6.504;2023-06-22T09:51:51;10.60;;;6.15;;
52057;SDS011;38063;53.210;6.504;2023-06-22T09:54:17;8.32;;;6.13;;
52057;SDS011;38063;53.210;6.504;2023-06-22T09:56:43;9.48;;;6.32;;
52057;SDS011;38063;53.210;6.504;2023-06-22T09:59:09;9.05;;;6.07;;
52057;SDS011;38063;53.210;6.504;2023-06-22T10:01:34;10.88;;;6.95;;
52057;SDS011;38063;53.210;6.504;2023-06-22T10:04:01;10.98;;;7.32;;
52057;SDS011;38063;53.210;6.504;2023-06-22T10:06:27;7.97;;;6.78;;
52057;SDS011;38063;53.210;6.504;2023-06-22T10:08:53;9.57;;;6.03;;
52057;SDS011;38063;53.210;6.504;2023-06-22T10:11:19;10.68;;;6.85;;
52057;SDS011;38063;53.210;6.504;2023-06-22T10:13:44;8.65;;;6.15;;
52057;SDS011;38063;53.210;6.504;2023-06-22T10:16:10;8.30;;;6.50;;
52057;SDS011;38063;53.210;6.504;2023-06-22T10:18:36;8.07;;;5.85;;
52057;SDS011;38063;53.210;6.504;2023-06-22T10:21:01;9.07;;;6.10;;
52057;SDS011;38063;53.210;6.504;2023-06-22T10:23:27;11.88;;;6.00;;
52057;SDS011;38063;53.210;6.504;2023-06-22T10:25:53;10.48;;;6.90;;
52057;SDS011;38063;53.210;6.504;2023-06-22T10:28:18;8.13;;;6.00;;
52057;SDS011;38063;53.210;6.504;2023-06-22T10:30:44;7.90;;;5.70;;
52057;SDS011;38063;53.210;6.504;2023-06-22T10:33:10;7.75;;;6.40;;
52057;SDS011;38063;53.210;6.504;2023-06-22T10:35:36;8.90;;;6.88;;
52057;SDS011;38063;53.210;6.504;2023-06-22T10:38:03;8.85;;;6.78;;
52057;SDS011;38063;53.210;6.504;2023-06-22T10:40:29;9.48;;;6.35;;
52057;SDS011;38063;53.210;6.504;2023-06-22T10:42:55;8.73;;;5.75;;
52057;SDS011;38063;53.210;6.504;2023-06-22T10:45:21;7.93;;;5.40;;
52057;SDS011;38063;53.210;6.504;2023-06-22T10:47:46;9.27;;;5.97;;
52057;SDS011;38063;53.210;6.504;2023-06-22T10:50:12;8.50;;;6.25;;
52057;SDS011;38063;53.210;6.504;2023-06-22T10:52:38;11.20;;;5.90;;
52057;SDS011;38063;53.210;6.504;2023-06-22T10:55:06;7.18;;;5.45;;
52057;SDS011;38063;53.210;6.504;2023-06-22T10:57:33;9.13;;;6.53;;
52057;SDS011;38063;53.210;6.504;2023-06-22T10:59:58;7.70;;;5.80;;
52057;SDS011;38063;53.210;6.504;2023-06-22T11:02:24;6.22;;;5.00;;
52057;SDS011;38063;53.210;6.504;2023-06-22T11:04:50;8.18;;;6.10;;
52057;SDS011;38063;53.210;6.504;2023-06-22T11:07:16;8.23;;;5.68;;
52057;SDS011;38063;53.210;6.504;2023-06-22T11:09:44;8.35;;;5.80;;
52057;SDS011;38063;53.210;6.504;2023-06-22T11:12:10;7.07;;;4.63;;
52057;SDS011;38063;53.210;6.504;2023-06-22T11:14:36;6.18;;;4.38;;
52057;SDS011;38063;53.210;6.504;2023-06-22T11:17:02;8.32;;;5.20;;
52057;SDS011;38063;53.210;6.504;2023-06-22T11:19:27;6.22;;;4.70;;
52057;SDS011;38063;53.210;6.504;2023-06-22T11:21:53;7.00;;;5.38;;
52057;SDS011;38063;53.210;6.504;2023-06-22T11:24:18;8.63;;;6.18;;
52057;SDS011;38063;53.210;6.504;2023-06-22T11:26:44;8.25;;;5.47;;
52057;SDS011;38063;53.210;6.504;2023-06-22T11:29:10;6.82;;;5.22;;
52057;SDS011;38063;53.210;6.504;2023-06-22T11:31:35;13.02;;;6.32;;
52057;SDS011;38063;53.210;6.504;2023-06-22T11:34:01;7.18;;;5.13;;
52057;SDS011;38063;53.210;6.504;2023-06-22T11:36:28;6.68;;;5.10;;
52057;SDS011;38063;53.210;6.504;2023-06-22T11:38:54;6.32;;;5.32;;
52057;SDS011;38063;53.210;6.504;2023-06-22T11:41:20;6.65;;;5.60;;
52057;SDS011;38063;53.210;6.504;2023-06-22T11:43:45;7.90;;;6.00;;
52057;SDS011;38063;53.210;6.504;2023-06-22T11:46:11;8.75;;;6.07;;
52057;SDS011;38063;53.210;6.504;2023-06-22T11:48:37;6.82;;;5.40;;
52057;SDS011;38063;53.210;6.504;2023-06-22T11:51:02;8.52;;;6.65;;
52057;SDS011;38063;53.210;6.504;2023-06-22T11:53:28;9.65;;;5.65;;
52057;SDS011;38063;53.210;6.504;2023-06-22T11:55:55;7.22;;;5.05;;
52057;SDS011;38063;53.210;6.504;2023-06-22T11:58:21;8.63;;;5.40;;
52057;SDS011;38063;53.210;6.504;2023-06-22T12:00:47;6.55;;;5.53;;
52057;SDS011;38063;53.210;6.504;2023-06-22T12:03:13;5.97;;;4.72;;
52057;SDS011;38063;53.210;6.504;2023-06-22T12:05:39;7.95;;;5.93;;
52057;SDS011;38063;53.210;6.504;2023-06-22T12:08:05;8.38;;;5.28;;
52057;SDS011;38063;53.210;6.504;2023-06-22T12:10:31;7.68;;;5.70;;
52057;SDS011;38063;53.210;6.504;2023-06-22T12:12:57;7.45;;;5.68;;
52057;SDS011;38063;53.210;6.504;2023-06-22T12:15:24;7.68;;;6.03;;
52057;SDS011;38063;53.210;6.504;2023-06-22T12:17:50;8.40;;;6.15;;
52057;SDS011;38063;53.210;6.504;2023-06-22T12:20:16;8.23;;;6.15;;
52057;SDS011;38063;53.210;6.504;2023-06-22T12:22:42;9.98;;;6.25;;
52057;SDS011;38063;53.210;6.504;2023-06-22T12:25:08;8.68;;;5.55;;
52057;SDS011;38063;53.210;6.504;2023-06-22T12:27:34;8.20;;;5.93;;
52057;SDS011;38063;53.210;6.504;2023-06-22T12:30:01;8.05;;;5.65;;
52057;SDS011;38063;53.210;6.504;2023-06-22T12:32:27;9.05;;;5.82;;
52057;SDS011;38063;53.210;6.504;2023-06-22T12:34:53;7.03;;;4.93;;
52057;SDS011;38063;53.210;6.504;2023-06-22T12:37:19;9.30;;;5.95;;
52057;SDS011;38063;53.210;6.504;2023-06-22T12:39:44;10.05;;;6.03;;
52057;SDS011;38063;53.210;6.504;2023-06-22T12:42:10;6.72;;;5.15;;
52057;SDS011;38063;53.210;6.504;2023-06-22T12:44:40;11.88;;;5.57;;
52057;SDS011;38063;53.210;6.504;2023-06-22T12:47:06;6.70;;;4.50;;
52057;SDS011;38063;53.210;6.504;2023-06-22T12:49:33;9.82;;;5.43;;
52057;SDS011;38063;53.210;6.504;2023-06-22T12:52:02;7.45;;;4.72;;
52057;SDS011;38063;53.210;6.504;2023-06-22T12:54:28;7.68;;;4.47;;
52057;SDS011;38063;53.210;6.504;2023-06-22T12:56:54;6.43;;;4.63;;
52057;SDS011;38063;53.210;6.504;2023-06-22T12:59:21;8.23;;;4.70;;
52057;SDS011;38063;53.210;6.504;2023-06-22T13:01:46;6.38;;;4.97;;
52057;SDS011;38063;53.210;6.504;2023-06-22T13:04:12;6.75;;;4.35;;
52057;SDS011;38063;53.210;6.504;2023-06-22T13:06:42;9.02;;;5.47;;
52057;SDS011;38063;53.210;6.504;2023-06-22T13:09:14;7.05;;;5.45;;
52057;SDS011;38063;53.210;6.504;2023-06-22T13:11:41;7.38;;;5.47;;
52057;SDS011;38063;53.210;6.504;2023-06-22T13:14:08;8.57;;;5.97;;
52057;SDS011;38063;53.210;6.504;2023-06-22T13:16:33;8.55;;;4.85;;
52057;SDS011;38063;53.210;6.504;2023-06-22T13:18:59;8.23;;;5.13;;
52057;SDS011;38063;53.210;6.504;2023-06-22T13:21:25;7.57;;;5.07;;
52057;SDS011;38063;53.210;6.504;2023-06-22T13:23:51;7.30;;;4.22;;
52057;SDS011;38063;53.210;6.504;2023-06-22T13:26:17;7.82;;;4.35;;
52057;SDS011;38063;53.210;6.504;2023-06-22T13:28:42;8.25;;;4.50;;
52057;SDS011;38063;53.210;6.504;2023-06-22T13:31:08;6.43;;;4.20;;
52057;SDS011;38063;53.210;6.504;2023-06-22T13:33:33;7.05;;;4.45;;
52057;SDS011;38063;53.210;6.504;2023-06-22T13:35:59;6.07;;;4.00;;
52057;SDS011;38063;53.210;6.504;2023-06-22T13:38:25;6.47;;;3.17;;
52057;SDS011;38063;53.210;6.504;2023-06-22T13:40:50;5.95;;;3.72;;
52057;SDS011;38063;53.210;6.504;2023-06-22T13:43:16;6.18;;;3.38;;
52057;SDS011;38063;53.210;6.504;2023-06-22T13:45:42;6.43;;;3.15;;
52057;SDS011;38063;53.210;6.504;2023-06-22T13:48:08;3.58;;;2.85;;
52057;SDS011;38063;53.210;6.504;2023-06-22T13:50:34;4.63;;;3.03;;
52057;SDS011;38063;53.210;6.504;2023-06-22T13:53:00;3.75;;;2.75;;
52057;SDS011;38063;53.210;6.504;2023-06-22T13:55:26;4.78;;;2.60;;
52057;SDS011;38063;53.210;6.504;2023-06-22T13:57:52;3.22;;;2.70;;
52057;SDS011;38063;53.210;6.504;2023-06-22T14:00:18;3.70;;;2.80;;
52057;SDS011;38063;53.210;6.504;2023-06-22T14:02:44;8.57;;;2.60;;
52057;SDS011;38063;53.210;6.504;2023-06-22T14:05:10;3.55;;;2.72;;
52057;SDS011;38063;53.210;6.504;2023-06-22T14:07:36;3.67;;;2.70;;
52057;SDS011;38063;53.210;6.504;2023-06-22T14:10:02;4.07;;;2.30;;
52057;SDS011;38063;53.210;6.504;2023-06-22T14:12:28;4.38;;;2.45;;
52057;SDS011;38063;53.210;6.504;2023-06-22T14:14:54;5.82;;;2.20;;
52057;SDS011;38063;53.210;6.504;2023-06-22T14:17:20;3.30;;;2.10;;
52057;SDS011;38063;53.210;6.504;2023-06-22T14:19:51;3.67;;;2.30;;
52057;SDS011;38063;53.210;6.504;2023-06-22T14:22:20;4.75;;;2.72;;
52057;SDS011;38063;53.210;6.504;2023-06-22T14:24:47;2.10;;;1.80;;
52057;SDS011;38063;53.210;6.504;2023-06-22T14:27:13;4.88;;;2.50;;
52057;SDS011;38063;53.210;6.504;2023-06-22T14:29:39;3.63;;;2.17;;
52057;SDS011;38063;53.210;6.504;2023-06-22T14:32:05;5.78;;;2.05;;
52057;SDS011;38063;53.210;6.504;2023-06-22T14:34:32;4.18;;;2.10;;